createdAt,value
2019-03-29T00:00:12.830Z,55.42
2019-03-29T00:02:42.956Z,55.39
2019-03-29T00:05:12.684Z,55.93
2019-03-29T00:07:42.921Z,55.99
2019-03-29T00:10:11.888Z,56.94
2019-03-29T00:12:40.947Z,56.96
2019-03-29T00:15:11.034Z,57.16
2019-03-29T00:17:40.028Z,57.59
2019-03-29T00:20:09.107Z,56.60
2019-03-29T00:22:38.087Z,56.91
2019-03-29T00:25:07.401Z,56.99
2019-03-29T00:27:36.332Z,56.85
2019-03-29T00:30:06.388Z,57.64
2019-03-29T00:32:35.240Z,57.05
2019-03-29T00:35:04.902Z,56.49
2019-03-29T00:37:33.721Z,57.48
2019-03-29T00:40:02.551Z,57.14
2019-03-29T00:42:31.423Z,56.89
2019-03-29T00:45:00.410Z,57.37
2019-03-29T00:47:29.981Z,57.52
2019-03-29T00:49:59.043Z,57.50
2019-03-29T00:52:27.902Z,57.95
2019-03-29T00:54:56.670Z,58.08
2019-03-29T00:57:25.451Z,58.79
2019-03-29T00:59:54.294Z,58.48
2019-03-29T01:02:23.165Z,58.54
2019-03-29T01:04:51.950Z,58.82
2019-03-29T01:07:20.773Z,58.98
2019-03-29T01:09:49.639Z,58.92
2019-03-29T01:12:18.465Z,59.27
2019-03-29T01:14:47.314Z,59.22
2019-03-29T01:17:16.081Z,58.32
2019-03-29T01:19:44.917Z,58.43
2019-03-29T01:22:13.751Z,58.40
2019-03-29T01:24:42.524Z,58.71
2019-03-29T01:27:11.374Z,58.56
2019-03-29T01:29:40.265Z,58.95
2019-03-29T01:32:09.140Z,58.26
2019-03-29T01:34:38.013Z,58.35
2019-03-29T01:37:06.837Z,58.86
2019-03-29T01:39:35.689Z,58.82
2019-03-29T01:42:04.478Z,57.43
2019-03-29T01:44:33.410Z,57.91
2019-03-29T01:47:02.290Z,59.15
2019-03-29T01:49:31.135Z,58.00
2019-03-29T01:51:59.973Z,58.37
2019-03-29T01:54:28.827Z,58.96
2019-03-29T01:56:57.674Z,58.37
2019-03-29T01:59:26.548Z,58.89
2019-03-29T02:01:55.365Z,59.04
2019-03-29T02:04:24.295Z,58.87
2019-03-29T02:06:53.172Z,59.58
2019-03-29T02:09:21.939Z,59.26
2019-03-29T02:11:50.803Z,59.31
2019-03-29T02:14:19.603Z,59.17
2019-03-29T02:16:48.447Z,60.00
2019-03-29T02:19:17.293Z,59.76
2019-03-29T02:21:46.076Z,59.24
2019-03-29T02:24:14.911Z,59.84
2019-03-29T02:26:43.755Z,60.32
2019-03-29T02:29:12.584Z,60.17
2019-03-29T02:31:42.426Z,60.46
2019-03-29T02:34:11.639Z,60.87
2019-03-29T02:36:40.495Z,60.97
2019-03-29T02:39:09.377Z,60.81
2019-03-29T02:41:38.218Z,61.82
2019-03-29T02:44:07.606Z,61.43
2019-03-29T02:46:36.796Z,61.47
2019-03-29T02:49:05.574Z,61.52
2019-03-29T02:51:34.417Z,61.46
2019-03-29T02:54:03.265Z,61.39
2019-03-29T02:56:32.088Z,62.36
2019-03-29T02:59:00.918Z,61.46
2019-03-29T03:01:29.753Z,62.10
2019-03-29T03:03:58.600Z,62.38
2019-03-29T03:06:27.437Z,62.68
2019-03-29T03:09:12.144Z,62.21
2019-03-29T03:11:26.755Z,62.39
2019-03-29T03:13:55.585Z,62.12
2019-03-29T03:16:24.442Z,61.96
2019-03-29T03:18:53.277Z,61.72
2019-03-29T03:21:22.099Z,61.77
2019-03-29T03:23:50.863Z,61.77
2019-03-29T03:26:19.708Z,61.78
2019-03-29T03:28:48.557Z,61.68
2019-03-29T03:31:17.415Z,61.70
2019-03-29T03:33:46.174Z,61.91
2019-03-29T03:36:15.031Z,62.23
2019-03-29T03:38:43.864Z,61.74
2019-03-29T03:41:12.689Z,61.32
2019-03-29T03:43:41.455Z,61.25
2019-03-29T03:46:10.296Z,61.74
2019-03-29T03:48:39.129Z,62.23
2019-03-29T03:51:07.970Z,62.35
2019-03-29T03:53:36.726Z,63.06
2019-03-29T03:56:06.975Z,62.44
2019-03-29T03:58:36.308Z,62.61
2019-03-29T04:01:05.154Z,63.01
2019-03-29T04:03:34.010Z,62.24
2019-03-29T04:06:02.802Z,63.00
2019-03-29T04:08:31.689Z,62.65
2019-03-29T04:11:00.514Z,62.66
2019-03-29T04:13:29.281Z,63.15
2019-03-29T04:15:58.069Z,62.40
2019-03-29T04:18:26.894Z,62.27
2019-03-29T04:20:55.739Z,62.50
2019-03-29T04:23:24.690Z,62.08
2019-03-29T04:25:53.910Z,62.04
2019-03-29T04:28:24.458Z,61.73
2019-03-29T04:30:53.336Z,61.90
2019-03-29T04:33:22.109Z,60.75
2019-03-29T04:35:50.878Z,60.23
2019-03-29T04:38:19.829Z,58.98
2019-03-29T04:40:48.770Z,58.08
2019-03-29T04:43:17.627Z,58.12
2019-03-29T04:45:46.469Z,57.99
2019-03-29T04:48:15.313Z,57.17
2019-03-29T04:50:44.175Z,57.37
2019-03-29T04:53:13.056Z,57.71
2019-03-29T04:55:41.895Z,58.37
2019-03-29T04:58:10.773Z,57.72
2019-03-29T05:00:39.563Z,57.40
2019-03-29T05:03:08.393Z,57.06
2019-03-29T05:05:37.240Z,56.68
2019-03-29T05:08:06.032Z,55.87
2019-03-29T05:10:34.849Z,56.00
2019-03-29T05:13:03.705Z,55.93
2019-03-29T05:15:32.576Z,56.13
2019-03-29T05:18:01.659Z,55.15
2019-03-29T05:20:30.508Z,55.07
2019-03-29T05:22:59.342Z,55.38
2019-03-29T05:25:28.280Z,55.90
2019-03-29T05:27:57.487Z,55.56
2019-03-29T05:30:26.368Z,55.01
2019-03-29T05:32:55.208Z,53.17
2019-03-29T05:35:24.056Z,52.50
2019-03-29T05:37:52.894Z,52.22
2019-03-29T05:40:34.280Z,51.75
2019-03-29T05:42:52.236Z,51.12
2019-03-29T05:45:21.121Z,51.09
2019-03-29T05:47:50.015Z,51.12
2019-03-29T05:50:18.851Z,50.80
2019-03-29T05:52:47.887Z,49.60
2019-03-29T05:55:16.739Z,49.51
2019-03-29T05:57:45.573Z,48.78
2019-03-29T06:00:16.192Z,48.81
2019-03-29T06:02:45.056Z,48.38
2019-03-29T06:05:14.012Z,48.20
2019-03-29T06:07:42.774Z,48.25
2019-03-29T06:10:11.655Z,48.85
2019-03-29T06:12:40.498Z,47.96
2019-03-29T06:15:09.554Z,48.58
2019-03-29T06:17:48.622Z,47.35
2019-03-29T06:20:09.192Z,47.67
2019-03-29T06:22:38.024Z,48.47
2019-03-29T06:25:08.216Z,46.90
2019-03-29T06:27:37.685Z,46.54
2019-03-29T06:30:08.174Z,47.15
2019-03-29T06:32:37.624Z,45.65
2019-03-29T06:35:08.366Z,44.21
2019-03-29T06:37:40.416Z,44.26
2019-03-29T06:40:12.703Z,44.10
2019-03-29T06:42:42.133Z,42.66
2019-03-29T06:45:11.859Z,42.41
2019-03-29T06:47:41.297Z,41.66
2019-03-29T06:50:13.954Z,40.74
2019-03-29T06:52:42.166Z,40.93
2019-03-29T06:55:11.666Z,40.42
2019-03-29T06:57:41.116Z,40.11
2019-03-29T07:00:10.845Z,39.03
2019-03-29T07:02:40.288Z,39.37
2019-03-29T07:05:09.732Z,39.19
2019-03-29T07:07:39.131Z,39.44
2019-03-29T07:10:08.634Z,39.83
2019-03-29T07:12:39.608Z,38.93
2019-03-29T07:15:09.059Z,38.96
2019-03-29T07:17:38.427Z,38.63
2019-03-29T07:20:08.138Z,38.39
2019-03-29T07:22:37.624Z,37.71
2019-03-29T07:25:08.350Z,38.60
2019-03-29T07:27:44.950Z,37.37
2019-03-29T07:30:10.193Z,37.10
2019-03-29T07:32:39.603Z,34.72
2019-03-29T07:35:09.090Z,36.40
2019-03-29T07:37:38.534Z,36.54
2019-03-29T07:40:08.521Z,36.45
2019-03-29T07:42:37.937Z,35.45
2019-03-29T07:45:10.151Z,35.51
2019-03-29T07:47:39.559Z,34.76
2019-03-29T07:50:09.013Z,34.61
2019-03-29T07:52:38.465Z,33.37
2019-03-29T07:55:08.378Z,34.07
2019-03-29T07:57:37.784Z,33.55
2019-03-29T08:00:09.164Z,33.29
2019-03-29T08:02:38.826Z,33.11
2019-03-29T08:05:08.364Z,33.61
2019-03-29T08:07:37.808Z,33.11
2019-03-29T08:10:07.359Z,32.22
2019-03-29T08:12:40.319Z,31.53
2019-03-29T08:15:09.848Z,33.22
2019-03-29T08:17:39.565Z,31.63
2019-03-29T08:20:37.381Z,31.15
2019-03-29T08:22:40.265Z,29.89
2019-03-29T08:25:09.630Z,28.29
2019-03-29T08:27:39.167Z,30.54
2019-03-29T08:30:08.993Z,29.12
2019-03-29T08:32:38.340Z,28.98
2019-03-29T08:35:07.925Z,28.72
2019-03-29T08:37:37.389Z,27.34
2019-03-29T08:40:06.969Z,27.99
2019-03-29T08:42:36.437Z,28.45
2019-03-29T08:45:07.492Z,27.98
2019-03-29T08:47:36.948Z,27.62
2019-03-29T08:50:08.024Z,27.11
2019-03-29T08:52:37.469Z,27.33
2019-03-29T08:55:07.972Z,27.14
2019-03-29T08:57:37.495Z,27.00
2019-03-29T09:00:10.473Z,27.12
2019-03-29T09:02:39.941Z,27.38
2019-03-29T09:05:09.369Z,25.80
2019-03-29T09:07:44.996Z,26.31
2019-03-29T09:10:27.221Z,25.10
2019-03-29T09:12:56.757Z,26.15
2019-03-29T09:15:26.142Z,25.40
2019-03-29T09:17:55.610Z,24.77
2019-03-29T09:20:25.019Z,26.50
2019-03-29T09:22:54.518Z,26.41
2019-03-29T09:25:24.059Z,26.01
2019-03-29T09:27:57.359Z,27.10
2019-03-29T09:30:26.984Z,25.52
2019-03-29T09:32:56.426Z,25.86
2019-03-29T09:35:25.842Z,25.50
2019-03-29T09:37:56.641Z,25.40
2019-03-29T09:40:26.373Z,25.84
2019-03-29T09:43:06.873Z,23.77
2019-03-29T09:45:26.941Z,24.61
2019-03-29T09:47:56.382Z,25.16
2019-03-29T09:50:25.925Z,24.52
2019-03-29T09:52:55.348Z,24.82
2019-03-29T09:55:24.774Z,24.22
2019-03-29T09:57:54.281Z,23.49
2019-03-29T10:00:24.039Z,24.73
2019-03-29T10:02:53.693Z,24.18
2019-03-29T10:05:23.097Z,23.95
2019-03-29T10:07:52.632Z,23.43
2019-03-29T10:10:22.170Z,24.22
2019-03-29T10:12:51.563Z,24.45
2019-03-29T10:15:20.960Z,23.57
2019-03-29T10:17:50.391Z,24.43
2019-03-29T10:20:19.877Z,23.18
2019-03-29T10:22:49.390Z,22.96
2019-03-29T10:25:20.199Z,23.80
2019-03-29T10:27:50.081Z,24.04
2019-03-29T10:30:34.331Z,23.55
2019-03-29T10:33:03.700Z,23.92
2019-03-29T10:35:33.198Z,23.97
2019-03-29T10:38:02.655Z,22.45
2019-03-29T10:40:32.087Z,21.57
2019-03-29T10:43:01.554Z,23.70
2019-03-29T10:45:30.951Z,22.46
2019-03-29T10:48:00.417Z,23.64
2019-03-29T10:50:29.986Z,23.44
2019-03-29T10:52:59.508Z,22.91
2019-03-29T10:55:28.973Z,23.16
2019-03-29T10:57:58.419Z,23.16
2019-03-29T11:00:36.040Z,21.70
2019-03-29T11:03:06.081Z,22.29
2019-03-29T11:05:35.528Z,22.45
2019-03-29T11:08:05.280Z,20.63
2019-03-29T11:10:36.893Z,20.62
2019-03-29T11:13:13.389Z,22.27
2019-03-29T11:15:37.690Z,21.19
2019-03-29T11:18:07.578Z,21.71
2019-03-29T11:20:37.065Z,22.13
2019-03-29T11:23:06.685Z,22.67
2019-03-29T11:25:36.174Z,22.25
2019-03-29T11:28:05.645Z,21.60
2019-03-29T11:30:42.164Z,21.75
2019-03-29T11:33:06.538Z,21.58
2019-03-29T11:35:36.071Z,21.02
2019-03-29T11:38:05.615Z,21.78
2019-03-29T11:40:35.096Z,20.82
2019-03-29T11:43:04.554Z,20.53
2019-03-29T11:45:34.229Z,20.97
2019-03-29T11:48:08.924Z,20.97
2019-03-29T11:50:34.798Z,20.97
2019-03-29T11:53:04.306Z,20.97
2019-03-29T11:55:33.674Z,20.96
2019-03-29T11:58:03.114Z,21.98
2019-03-29T12:00:36.993Z,21.39
2019-03-29T12:03:09.189Z,20.37
2019-03-29T12:05:37.642Z,21.38
2019-03-29T12:08:07.249Z,20.09
2019-03-29T12:10:36.667Z,21.85
2019-03-29T12:13:06.566Z,21.76
2019-03-29T12:15:35.991Z,23.23
2019-03-29T12:18:05.414Z,23.48
2019-03-29T12:20:34.777Z,23.56
2019-03-29T12:23:04.282Z,23.96
2019-03-29T12:25:33.690Z,23.88
2019-03-29T12:28:03.124Z,24.75
2019-03-29T12:30:33.175Z,24.18
2019-03-29T12:33:02.591Z,24.20
2019-03-29T12:35:32.021Z,25.01
2019-03-29T12:38:01.666Z,24.12
2019-03-29T12:40:31.102Z,24.78
2019-03-29T12:43:00.628Z,24.41
2019-03-29T12:45:30.062Z,23.88
2019-03-29T12:47:59.496Z,25.16
2019-03-29T12:50:28.946Z,25.15
2019-03-29T12:52:58.379Z,25.06
2019-03-29T12:55:27.888Z,24.67
2019-03-29T12:57:57.351Z,25.53
2019-03-29T13:00:26.966Z,25.74
2019-03-29T13:02:56.443Z,26.39
2019-03-29T13:05:25.884Z,26.55
2019-03-29T13:07:55.361Z,26.40
2019-03-29T13:10:25.288Z,26.07
2019-03-29T13:12:54.720Z,27.39
2019-03-29T13:15:24.151Z,27.61
2019-03-29T13:17:53.660Z,28.09
2019-03-29T13:20:23.041Z,28.18
2019-03-29T13:22:52.491Z,28.35
2019-03-29T13:25:21.990Z,28.53
2019-03-29T13:27:51.329Z,29.04
2019-03-29T13:30:20.832Z,28.36
2019-03-29T13:32:50.413Z,28.29
2019-03-29T13:35:19.875Z,28.14
2019-03-29T13:37:49.359Z,28.07
2019-03-29T13:40:21.153Z,27.93
2019-03-29T13:42:50.046Z,28.20
2019-03-29T13:45:19.524Z,28.24
2019-03-29T13:47:48.915Z,28.62
2019-03-29T13:50:18.424Z,28.65
2019-03-29T13:52:47.850Z,28.44
2019-03-29T13:55:17.246Z,29.00
2019-03-29T13:57:46.713Z,28.61
2019-03-29T14:00:16.586Z,28.04
2019-03-29T14:02:46.013Z,28.65
2019-03-29T14:05:15.504Z,28.76
2019-03-29T14:07:44.952Z,29.18
2019-03-29T14:10:14.344Z,28.86
2019-03-29T14:12:43.705Z,29.02
2019-03-29T14:15:13.836Z,29.14
2019-03-29T14:17:43.348Z,29.00
2019-03-29T14:20:13.464Z,28.57
2019-03-29T14:22:42.900Z,28.67
2019-03-29T14:25:12.454Z,29.03
2019-03-29T14:27:41.897Z,29.69
2019-03-29T14:30:11.735Z,30.04
2019-03-29T14:32:41.089Z,29.56
2019-03-29T14:35:10.629Z,28.88
2019-03-29T14:37:40.061Z,29.69
2019-03-29T14:40:10.427Z,29.48
2019-03-29T14:42:39.902Z,29.31
2019-03-29T14:45:09.769Z,29.08
2019-03-29T14:47:43.388Z,29.36
2019-03-29T14:50:10.789Z,29.83
2019-03-29T14:52:40.263Z,29.32
2019-03-29T14:55:09.948Z,28.48
2019-03-29T14:57:39.390Z,28.99
2019-03-29T15:00:12.912Z,28.99
2019-03-29T15:02:42.402Z,28.00
2019-03-29T15:05:11.950Z,27.68
2019-03-29T15:07:43.010Z,27.58
2019-03-29T15:10:28.370Z,27.26
2019-03-29T15:12:57.907Z,26.28
2019-03-29T15:15:27.350Z,27.32
2019-03-29T15:17:56.774Z,27.03
2019-03-29T15:20:26.193Z,26.31
2019-03-29T15:22:55.650Z,25.55
2019-03-29T15:25:25.090Z,26.13
2019-03-29T15:27:54.560Z,26.24
2019-03-29T15:30:23.923Z,26.36
2019-03-29T15:32:53.368Z,26.15
2019-03-29T15:35:22.828Z,25.41
2019-03-29T15:37:52.274Z,25.92
2019-03-29T15:40:21.803Z,26.26
2019-03-29T15:42:51.239Z,26.39
2019-03-29T15:45:21.263Z,26.92
2019-03-29T15:47:50.725Z,26.54
2019-03-29T15:50:20.183Z,27.16
2019-03-29T15:52:49.636Z,27.78
2019-03-29T15:55:19.192Z,29.27
2019-03-29T15:57:48.668Z,30.25
2019-03-29T16:00:18.236Z,31.32
2019-03-29T16:02:47.665Z,32.41
2019-03-29T16:05:17.099Z,32.96
2019-03-29T16:07:46.594Z,33.38
2019-03-29T16:10:16.072Z,33.83
2019-03-29T16:12:45.405Z,34.58
2019-03-29T16:15:14.858Z,34.56
2019-03-29T16:17:44.282Z,34.85
2019-03-29T16:20:13.722Z,34.95
2019-03-29T16:22:43.191Z,35.36
2019-03-29T16:25:12.622Z,35.83
2019-03-29T16:27:42.070Z,36.05
2019-03-29T16:30:11.949Z,36.27
2019-03-29T16:32:41.457Z,36.50
2019-03-29T16:35:10.880Z,36.90
2019-03-29T16:37:40.337Z,37.59
2019-03-29T16:40:09.945Z,37.23
2019-03-29T16:42:39.377Z,37.20
2019-03-29T16:45:09.344Z,37.39
2019-03-29T16:47:38.849Z,37.28
2019-03-29T16:50:09.075Z,37.96
2019-03-29T16:52:38.544Z,37.98
2019-03-29T16:55:13.802Z,37.81
2019-03-29T16:57:39.804Z,38.05
2019-03-29T17:00:12.545Z,38.23
2019-03-29T17:02:42.366Z,38.36
2019-03-29T17:05:11.851Z,38.09
2019-03-29T17:07:41.237Z,37.48
2019-03-29T17:10:11.212Z,37.68
2019-03-29T17:12:40.718Z,37.77
2019-03-29T17:15:10.247Z,38.16
2019-03-29T17:17:39.774Z,38.06
2019-03-29T17:20:09.685Z,38.42
2019-03-29T17:22:39.103Z,38.93
2019-03-29T17:25:08.907Z,39.13
2019-03-29T17:27:38.267Z,39.66
2019-03-29T17:30:09.498Z,39.78
2019-03-29T17:32:38.951Z,40.01
2019-03-29T17:35:08.425Z,40.31
2019-03-29T17:37:37.876Z,40.31
2019-03-29T17:40:08.975Z,40.58
2019-03-29T17:42:38.440Z,40.98
2019-03-29T17:45:08.382Z,41.55
2019-03-29T17:47:37.821Z,41.80
2019-03-29T17:50:07.929Z,41.97
2019-03-29T17:52:37.379Z,42.54
2019-03-29T17:55:07.658Z,42.82
2019-03-29T17:57:37.131Z,42.91
2019-03-29T18:00:08.209Z,43.33
2019-03-29T18:02:37.723Z,43.34
2019-03-29T18:05:08.041Z,43.21
2019-03-29T18:07:37.480Z,43.27
2019-03-29T18:10:08.422Z,43.12
2019-03-29T18:12:37.871Z,43.37
2019-03-29T18:15:12.153Z,43.38
2019-03-29T18:17:41.659Z,43.56
2019-03-29T18:20:11.665Z,43.80
2019-03-29T18:22:41.113Z,43.51
2019-03-29T18:25:10.552Z,43.55
2019-03-29T18:27:40.151Z,43.79
2019-03-29T18:30:11.385Z,44.02
2019-03-29T18:32:41.102Z,44.42
2019-03-29T18:35:11.194Z,44.18
2019-03-29T18:37:41.056Z,44.63
2019-03-29T18:40:16.174Z,44.86
2019-03-29T18:42:45.705Z,45.38
2019-03-29T18:45:15.175Z,44.41
2019-03-29T18:47:44.686Z,45.10
2019-03-29T18:50:14.144Z,44.82
2019-03-29T18:52:43.594Z,44.98
2019-03-29T18:55:12.979Z,45.58
2019-03-29T18:57:42.483Z,45.02
2019-03-29T19:00:12.082Z,45.49
2019-03-29T19:02:41.529Z,45.82
2019-03-29T19:05:13.857Z,46.07
2019-03-29T19:07:43.334Z,46.66
2019-03-29T19:10:12.776Z,46.20
2019-03-29T19:12:44.099Z,46.17
2019-03-29T19:15:13.589Z,46.35
2019-03-29T19:17:43.178Z,46.32
2019-03-29T19:20:26.276Z,46.24
2019-03-29T19:22:43.943Z,46.41
2019-03-29T19:25:13.385Z,46.78
2019-03-29T19:27:42.822Z,45.99
2019-03-29T19:30:12.136Z,46.48
2019-03-29T19:32:41.611Z,46.76
2019-03-29T19:35:11.157Z,47.36
2019-03-29T19:37:40.673Z,46.77
2019-03-29T19:40:10.351Z,46.93
2019-03-29T19:42:40.029Z,47.27
2019-03-29T19:45:13.134Z,46.88
2019-03-29T19:47:42.622Z,47.38
2019-03-29T19:50:11.980Z,48.04
2019-03-29T19:52:41.492Z,47.41
2019-03-29T19:55:10.372Z,47.64
2019-03-29T19:57:39.265Z,47.84
2019-03-29T20:00:15.076Z,47.99
2019-03-29T20:02:44.652Z,47.98
2019-03-29T20:05:25.852Z,48.44
2019-03-29T20:07:56.122Z,47.39
2019-03-29T20:10:25.058Z,48.36
2019-03-29T20:12:54.693Z,48.45
2019-03-29T20:15:23.607Z,48.99
2019-03-29T20:17:52.773Z,49.27
2019-03-29T20:20:25.637Z,49.14
2019-03-29T20:22:56.506Z,49.95
2019-03-29T20:25:26.123Z,49.83
2019-03-29T20:27:58.090Z,50.14
2019-03-29T20:30:25.999Z,50.30
2019-03-29T20:32:54.816Z,51.12
2019-03-29T20:35:23.762Z,50.91
2019-03-29T20:37:52.532Z,51.49
2019-03-29T20:40:21.675Z,50.55
2019-03-29T20:42:50.550Z,50.31
2019-03-29T20:45:19.482Z,50.39
2019-03-29T20:47:51.647Z,50.16
2019-03-29T20:50:19.083Z,49.91
2019-03-29T20:52:47.926Z,50.43
2019-03-29T20:55:16.779Z,50.24
2019-03-29T20:57:45.848Z,49.90
2019-03-29T21:00:17.281Z,49.87
2019-03-29T21:02:46.308Z,50.13
2019-03-29T21:05:15.258Z,50.81
2019-03-29T21:07:44.132Z,51.44
2019-03-29T21:10:12.993Z,52.12
2019-03-29T21:12:41.904Z,52.52
2019-03-29T21:15:11.346Z,52.86
2019-03-29T21:17:40.338Z,53.41
2019-03-29T21:20:10.341Z,54.15
2019-03-29T21:22:39.190Z,54.44
2019-03-29T21:25:08.519Z,54.86
2019-03-29T21:27:37.770Z,55.26
2019-03-29T21:30:09.571Z,55.54
2019-03-29T21:32:38.440Z,55.89
2019-03-29T21:35:08.205Z,56.51
2019-03-29T21:37:37.761Z,56.77
2019-03-29T21:40:08.594Z,56.79
2019-03-29T21:42:37.731Z,57.39
2019-03-29T21:45:08.399Z,57.22
2019-03-29T21:47:37.262Z,57.91
2019-03-29T21:50:10.435Z,58.25
2019-03-29T21:52:39.375Z,58.28
2019-03-29T21:55:08.579Z,58.67
2019-03-29T21:57:37.416Z,59.23
2019-03-29T22:00:08.894Z,59.55
2019-03-29T22:02:37.742Z,59.68
2019-03-29T22:05:10.335Z,59.75
2019-03-29T22:07:38.361Z,60.24
2019-03-29T22:10:08.684Z,60.47
2019-03-29T22:12:37.685Z,60.47
2019-03-29T22:15:10.148Z,60.75
2019-03-29T22:17:39.223Z,60.92
2019-03-29T22:20:09.606Z,61.34
2019-03-29T22:22:38.670Z,61.37
2019-03-29T22:25:08.512Z,61.44
2019-03-29T22:27:37.477Z,61.71
2019-03-29T22:30:11.198Z,61.44
2019-03-29T22:32:40.037Z,61.42
2019-03-29T22:35:09.195Z,61.49
2019-03-29T22:37:38.144Z,61.39
2019-03-29T22:40:10.530Z,61.65
2019-03-29T22:42:39.383Z,61.54
2019-03-29T22:45:09.204Z,61.86
2019-03-29T22:47:38.066Z,62.14
2019-03-29T22:50:07.502Z,62.32
2019-03-29T22:52:36.441Z,62.40
2019-03-29T22:55:08.505Z,62.90
2019-03-29T22:57:37.361Z,63.46
2019-03-29T23:00:28.598Z,63.54
2019-03-29T23:02:57.433Z,64.13
2019-03-29T23:05:26.357Z,64.19
2019-03-29T23:07:55.199Z,64.12
2019-03-29T23:10:24.146Z,64.08
2019-03-29T23:12:52.984Z,63.62
2019-03-29T23:15:21.861Z,63.59
2019-03-29T23:17:50.737Z,63.70
2019-03-29T23:20:19.699Z,63.94
2019-03-29T23:22:48.549Z,64.33
2019-03-29T23:25:17.391Z,65.03
2019-03-29T23:27:46.290Z,65.61
2019-03-29T23:30:15.871Z,65.93
2019-03-29T23:32:44.712Z,66.40
2019-03-29T23:35:13.676Z,66.92
2019-03-29T23:37:42.452Z,66.89
2019-03-29T23:40:11.380Z,66.67
2019-03-29T23:42:40.142Z,66.70
2019-03-29T23:45:09.013Z,66.66
2019-03-29T23:47:37.850Z,67.15
2019-03-29T23:50:07.824Z,68.03
2019-03-29T23:52:36.632Z,68.74
2019-03-29T23:55:06.272Z,68.82
2019-03-29T23:57:35.113Z,68.86
